Terminal Aerodrome Forecast
Issued by NWS

Home | Current Version | Previous Version | Text Only | Print | Product List | Glossary On
Versions: 1 2 3 4 5 6 7 8 9 10 11 12 13 14 15 16 17 18 19 20 21
000
FTUS41 KGYX 012101 AAA
TAFPSM
TAF AMD
KPSM 012101Z 0121/0218 03006KT 3SM -DZ BR OVC005
     FM020500 03012KT 2SM -DZ BR OVC003
     FM021300 02013KT 4SM BR OVC007
     FM021500 03012KT P6SM OVC015=

USA.gov is the U.S. government's official web portal to all federal, state and local government web resources and services.